Time;durP1;ratioP1;P1;durP2;ratioP2;P2;SDS_P1;SDS_P2;PMS_P1;PMS_P2;Temp;Humidity;BMP_temperature;BMP_pressure;BME280_temperature;BME280_humidity;BME280_pressure;Samples;Min_cycle;Max_cycle;Signal;HPM_P1;HPM_P2
2020/12/02 00:02:33;;;;;;;28.30;14.40;;;1.60;99.90;;;;;;5006866;28;20448;-58
2020/12/02 00:05:07;;;;;;;23.83;13.10;;;1.60;99.90;;;;;;5008605;28;20444;-58
2020/12/02 00:07:34;;;;;;;27.63;14.03;;;1.50;99.90;;;;;;5010396;28;20514;-59
2020/12/02 00:09:59;;;;;;;35.60;14.83;;;1.50;99.90;;;;;;5010467;28;20876;-59
2020/12/02 00:12:25;;;;;;;25.50;14.20;;;1.50;99.90;;;;;;5008633;28;20941;-59
2020/12/02 00:14:51;;;;;;;24.93;14.27;;;1.50;99.90;;;;;;5005114;28;20179;-59
2020/12/02 00:17:19;;;;;;;29.00;15.43;;;1.50;99.90;;;;;;5008332;28;20461;-59
2020/12/02 00:19:46;;;;;;;27.53;13.57;;;1.50;99.90;;;;;;5013964;28;20185;-61
2020/12/02 00:22:15;;;;;;;22.80;13.23;;;1.50;99.90;;;;;;5011802;28;20452;-61
2020/12/02 00:24:42;;;;;;;27.43;15.10;;;1.50;99.90;;;;;;5015119;28;20947;-59
2020/12/02 00:27:16;;;;;;;27.40;13.87;;;1.50;99.90;;;;;;5009867;28;20429;-60
2020/12/02 00:29:42;;;;;;;26.73;13.93;;;1.50;99.90;;;;;;5010918;28;20546;-59
2020/12/02 00:32:20;;;;;;;27.97;14.63;;;1.50;99.90;;;;;;5009128;28;20931;-60
2020/12/02 00:34:45;;;;;;;25.53;15.53;;;1.50;99.90;;;;;;5014226;28;20520;-60
2020/12/02 00:37:15;;;;;;;24.93;12.80;;;1.40;99.90;;;;;;5010546;28;20552;-60
2020/12/02 00:39:41;;;;;;;28.27;13.80;;;1.40;99.90;;;;;;5011653;28;20242;-60
2020/12/02 00:42:06;;;;;;;19.27;12.13;;;1.40;99.90;;;;;;5008887;28;20481;-59
2020/12/02 00:44:32;;;;;;;26.20;13.17;;;1.50;99.90;;;;;;5015296;28;20236;-59
2020/12/02 00:47:00;;;;;;;26.03;13.63;;;1.40;99.90;;;;;;5014257;28;20194;-60
2020/12/02 00:49:25;;;;;;;22.60;12.23;;;1.50;99.90;;;;;;5010348;28;20232;-61
2020/12/02 00:51:51;;;;;;;22.70;12.20;;;1.40;99.90;;;;;;5011751;28;20432;-62
2020/12/02 00:54:16;;;;;;;21.00;12.30;;;1.50;99.90;;;;;;5007986;28;20205;-59
2020/12/02 00:56:46;;;;;;;21.43;12.27;;;1.50;99.90;;;;;;5011877;28;20268;-59
2020/12/02 00:59:21;;;;;;;22.63;12.53;;;1.50;99.90;;;;;;5009480;28;20569;-61
2020/12/02 01:02:14;;;;;;;23.67;12.40;;;1.50;99.90;;;;;;5009676;28;20432;-59
2020/12/02 01:04:44;;;;;;;21.83;12.37;;;1.50;99.90;;;;;;5013646;28;20429;-58
2020/12/02 01:07:12;;;;;;;23.70;13.30;;;1.50;99.90;;;;;;5010700;28;20869;-60
2020/12/02 01:09:38;;;;;;;23.23;13.50;;;1.50;99.90;;;;;;5013722;28;20469;-60
2020/12/02 01:12:04;;;;;;;25.60;13.27;;;1.50;99.90;;;;;;5011061;28;20441;-60
2020/12/02 01:14:33;;;;;;;20.13;11.60;;;1.50;99.90;;;;;;5007448;28;20433;-61
2020/12/02 01:17:01;;;;;;;22.90;12.30;;;1.50;99.90;;;;;;5007523;28;20256;-60
2020/12/02 01:19:33;;;;;;;22.57;11.90;;;1.40;99.90;;;;;;5010059;28;20798;-60
2020/12/02 01:22:20;;;;;;;17.20;10.87;;;1.50;99.90;;;;;;5010427;28;21010;-60
2020/12/02 01:25:11;;;;;;;20.77;11.23;;;1.50;99.90;;;;;;5012340;28;20440;-59
2020/12/02 01:28:00;;;;;;;22.33;10.90;;;1.50;99.90;;;;;;5009165;28;20449;-60
2020/12/02 01:30:26;;;;;;;18.17;10.77;;;1.50;99.90;;;;;;5011366;28;20477;-61
2020/12/02 01:32:52;;;;;;;19.50;10.30;;;1.50;99.90;;;;;;5014593;28;20429;-60
2020/12/02 01:35:22;;;;;;;16.70;9.97;;;1.50;99.90;;;;;;5007397;28;20432;-60
2020/12/02 01:37:54;;;;;;;17.43;10.47;;;1.50;99.90;;;;;;5011083;28;20268;-59
2020/12/02 01:40:23;;;;;;;23.30;11.23;;;1.50;99.90;;;;;;5011208;28;20437;-61
2020/12/02 01:42:55;;;;;;;20.27;11.17;;;1.50;99.90;;;;;;5014197;28;20791;-59
2020/12/02 01:45:49;;;;;;;18.47;10.70;;;1.50;99.90;;;;;;5009937;28;20425;-60
2020/12/02 01:48:30;;;;;;;21.60;10.77;;;1.50;99.90;;;;;;5011661;28;20441;-60
2020/12/02 01:50:59;;;;;;;18.90;10.70;;;1.40;99.90;;;;;;5006830;28;20433;-60
2020/12/02 01:53:32;;;;;;;17.40;10.30;;;1.40;99.90;;;;;;5006864;28;20426;-59
2020/12/02 01:56:31;;;;;;;20.87;10.97;;;1.40;99.90;;;;;;5010149;28;20478;-59
2020/12/02 01:59:02;;;;;;;20.37;11.70;;;1.40;99.90;;;;;;4999407;28;20437;-60
2020/12/02 02:01:46;;;;;;;19.70;11.80;;;1.40;99.90;;;;;;5004057;28;20440;-59
2020/12/02 02:04:16;;;;;;;23.77;10.93;;;1.40;99.90;;;;;;5021795;28;20510;-60
2020/12/02 02:07:07;;;;;;;18.40;10.90;;;1.50;99.90;;;;;;5010701;28;20512;-59
2020/12/02 02:09:37;;;;;;;21.13;10.03;;;1.50;99.90;;;;;;5003734;28;21011;-60
2020/12/02 02:12:51;;;;;;;18.33;10.40;;;1.40;99.90;;;;;;5011340;28;20441;-61
2020/12/02 02:15:34;;;;;;;15.67;9.83;;;1.40;99.90;;;;;;5006924;28;20426;-59
2020/12/02 02:18:07;;;;;;;16.67;9.10;;;1.40;99.90;;;;;;5011079;28;20462;-62
2020/12/02 02:20:35;;;;;;;15.23;8.70;;;1.40;99.90;;;;;;5002700;28;20429;-59
2020/12/02 02:23:02;;;;;;;15.23;9.13;;;1.40;99.90;;;;;;5008672;28;20419;-60
2020/12/02 02:25:29;;;;;;;14.80;8.87;;;1.40;99.90;;;;;;5010425;28;20433;-59
2020/12/02 02:27:58;;;;;;;16.07;9.13;;;1.40;99.90;;;;;;5011604;28;20472;-60
2020/12/02 02:30:24;;;;;;;15.83;9.03;;;1.40;99.90;;;;;;5016792;28;20539;-59
2020/12/02 02:32:50;;;;;;;14.47;8.43;;;1.40;99.90;;;;;;5021113;28;20434;-59
2020/12/02 02:35:19;;;;;;;13.50;7.73;;;1.40;99.90;;;;;;5009224;28;20863;-58
2020/12/02 02:37:45;;;;;;;16.50;9.33;;;1.40;99.90;;;;;;5009124;28;20488;-59
2020/12/02 02:40:12;;;;;;;12.20;7.30;;;1.40;99.90;;;;;;5010658;28;20991;-59
2020/12/02 02:42:47;;;;;;;13.57;8.60;;;1.40;99.90;;;;;;5010010;28;20181;-59
2020/12/02 02:45:25;;;;;;;13.50;7.87;;;1.40;99.90;;;;;;5012933;28;21092;-58
2020/12/02 02:47:59;;;;;;;15.00;9.17;;;1.50;99.90;;;;;;5007505;28;20455;-60
2020/12/02 02:50:26;;;;;;;18.67;9.97;;;1.50;99.90;;;;;;5005405;28;20465;-59
2020/12/02 02:52:53;;;;;;;14.20;8.47;;;1.40;99.90;;;;;;5005919;28;20909;-60
2020/12/02 02:55:22;;;;;;;13.27;8.73;;;1.40;99.90;;;;;;5008138;28;20426;-59
2020/12/02 02:57:48;;;;;;;14.70;8.60;;;1.50;99.90;;;;;;5007860;28;20816;-59
2020/12/02 03:00:21;;;;;;;13.90;8.10;;;1.50;99.90;;;;;;5010741;28;21171;-59
2020/12/02 03:02:50;;;;;;;14.13;8.40;;;1.50;99.90;;;;;;5011574;28;20479;-58
2020/12/02 03:05:16;;;;;;;16.03;9.10;;;1.50;99.90;;;;;;5011785;28;20434;-61
2020/12/02 03:07:43;;;;;;;12.17;7.47;;;1.50;99.90;;;;;;5011956;28;20525;-60
2020/12/02 03:10:13;;;;;;;12.80;7.23;;;1.50;99.90;;;;;;5007259;28;20832;-59
2020/12/02 03:12:40;;;;;;;13.73;8.50;;;1.50;99.90;;;;;;5008793;28;20431;-59
2020/12/02 03:15:07;;;;;;;15.70;8.70;;;1.50;99.90;;;;;;5010767;28;20433;-60
2020/12/02 03:17:33;;;;;;;15.43;8.67;;;1.50;99.90;;;;;;5010575;28;20429;-59
2020/12/02 03:20:07;;;;;;;14.43;8.00;;;1.50;99.90;;;;;;5007095;28;20461;-59
2020/12/02 03:22:34;;;;;;;14.87;8.47;;;1.50;99.90;;;;;;5014886;28;20241;-60
2020/12/02 03:25:01;;;;;;;18.30;8.90;;;1.50;99.90;;;;;;5017404;28;20765;-60
2020/12/02 03:27:26;;;;;;;16.87;9.63;;;1.50;99.90;;;;;;5011723;28;20791;-59
2020/12/02 03:29:53;;;;;;;15.83;8.80;;;1.50;99.90;;;;;;5008143;28;20465;-59
2020/12/02 03:32:19;;;;;;;17.30;10.47;;;1.60;99.90;;;;;;4997716;28;20437;-60
2020/12/02 03:34:45;;;;;;;17.37;9.30;;;1.60;99.90;;;;;;5010764;28;20175;-60
2020/12/02 03:37:10;;;;;;;18.20;8.80;;;1.60;99.90;;;;;;5010906;28;20868;-60
2020/12/02 03:39:36;;;;;;;11.57;6.97;;;1.60;99.90;;;;;;5010213;28;20744;-59
2020/12/02 03:42:02;;;;;;;11.63;7.40;;;1.50;99.90;;;;;;5011429;28;20193;-58
2020/12/02 03:44:28;;;;;;;12.27;7.27;;;1.50;99.90;;;;;;5010005;28;20254;-59
2020/12/02 03:46:54;;;;;;;13.20;7.33;;;1.50;99.90;;;;;;5010368;28;20512;-59
2020/12/02 03:49:20;;;;;;;13.10;8.13;;;1.50;99.90;;;;;;5010736;28;20208;-59
2020/12/02 03:51:46;;;;;;;9.87;7.03;;;1.50;99.90;;;;;;5011730;28;20425;-61
2020/12/02 03:54:12;;;;;;;10.87;6.43;;;1.50;99.90;;;;;;5010843;28;20509;-60
2020/12/02 03:56:38;;;;;;;10.53;6.50;;;1.60;99.90;;;;;;5009970;28;20513;-59
2020/12/02 03:59:04;;;;;;;11.07;6.77;;;1.60;99.90;;;;;;5010555;28;20202;-60
2020/12/02 04:01:29;;;;;;;10.10;6.33;;;1.60;99.90;;;;;;5010344;28;20281;-59
2020/12/02 04:03:55;;;;;;;11.40;7.50;;;1.60;99.90;;;;;;5007817;28;20967;-60
2020/12/02 04:06:21;;;;;;;12.33;7.43;;;1.60;99.90;;;;;;5011177;28;20179;-59
2020/12/02 04:08:47;;;;;;;12.67;7.80;;;1.50;99.90;;;;;;5009516;28;20202;-59
2020/12/02 04:11:13;;;;;;;15.50;8.60;;;1.50;99.90;;;;;;5010115;28;20545;-59
2020/12/02 04:13:40;;;;;;;12.80;7.23;;;1.60;99.90;;;;;;5010459;28;20957;-60
2020/12/02 04:16:06;;;;;;;11.47;7.53;;;1.50;99.90;;;;;;5009704;28;20810;-60
2020/12/02 04:18:32;;;;;;;15.90;7.30;;;1.50;99.90;;;;;;5002753;28;20830;-59
2020/12/02 04:20:58;;;;;;;15.50;7.70;;;1.50;99.90;;;;;;5010105;28;20426;-59
2020/12/02 04:23:24;;;;;;;12.33;7.43;;;1.50;99.90;;;;;;5010696;28;20782;-59
2020/12/02 04:25:50;;;;;;;10.53;7.03;;;1.50;99.90;;;;;;5010002;28;20421;-59
2020/12/02 04:28:16;;;;;;;11.77;7.10;;;1.50;99.90;;;;;;5004830;28;20550;-59
2020/12/02 04:30:43;;;;;;;14.40;7.60;;;1.40;99.90;;;;;;5005036;28;20513;-60
2020/12/02 04:33:10;;;;;;;11.57;7.40;;;1.40;99.90;;;;;;5010870;28;20534;-59
2020/12/02 04:35:37;;;;;;;16.47;8.67;;;1.40;99.90;;;;;;5010208;28;20471;-59
2020/12/02 04:38:03;;;;;;;9.30;6.60;;;1.40;99.90;;;;;;5008662;28;21028;-59
2020/12/02 04:40:38;;;;;;;13.17;6.80;;;1.40;99.90;;;;;;5008919;28;20417;-59
2020/12/02 04:43:31;;;;;;;17.10;7.70;;;1.40;99.90;;;;;;5007101;28;20950;-59
2020/12/02 04:45:57;;;;;;;14.60;7.07;;;1.40;99.90;;;;;;5003713;28;20416;-59
2020/12/02 04:48:32;;;;;;;16.80;8.73;;;1.40;99.90;;;;;;5006970;28;20460;-59
2020/12/02 04:51:04;;;;;;;15.33;7.83;;;1.40;99.90;;;;;;5003486;28;20440;-60
2020/12/02 04:53:33;;;;;;;18.53;8.73;;;1.40;99.90;;;;;;5005443;28;20464;-63
2020/12/02 04:55:59;;;;;;;18.90;8.67;;;1.30;99.90;;;;;;5002742;28;20483;-59
2020/12/02 04:58:38;;;;;;;20.70;8.87;;;1.30;99.90;;;;;;4997872;28;20495;-59
2020/12/02 05:01:23;;;;;;;16.13;7.93;;;1.20;99.90;;;;;;5008035;28;20551;-59
2020/12/02 05:03:51;;;;;;;18.27;8.73;;;1.20;99.90;;;;;;5005483;28;20459;-59
2020/12/02 05:06:37;;;;;;;18.33;8.63;;;1.10;99.90;;;;;;5004393;28;20505;-59
2020/12/02 05:09:22;;;;;;;17.63;9.07;;;1.10;99.90;;;;;;5006045;28;20516;-57
2020/12/02 05:12:06;;;;;;;16.00;7.80;;;1.00;99.90;;;;;;5005521;28;20433;-59
2020/12/02 05:14:39;;;;;;;17.97;8.30;;;1.00;99.90;;;;;;5010001;28;20503;-59
2020/12/02 05:17:17;;;;;;;18.60;9.27;;;1.00;99.90;;;;;;5006310;28;20503;-59
2020/12/02 05:19:44;;;;;;;19.27;9.03;;;1.00;99.90;;;;;;5010573;28;20456;-61
2020/12/02 05:22:14;;;;;;;19.87;10.63;;;1.00;99.90;;;;;;5007571;28;20441;-60
2020/12/02 05:24:46;;;;;;;23.57;10.37;;;1.00;99.90;;;;;;5000146;28;20440;-60
2020/12/02 05:27:16;;;;;;;19.30;10.60;;;1.00;99.90;;;;;;5000578;28;20429;-59
2020/12/02 05:29:55;;;;;;;24.67;11.00;;;0.90;99.90;;;;;;5006101;28;20548;-59
2020/12/02 05:32:26;;;;;;;25.43;10.50;;;0.90;99.90;;;;;;5003437;28;20492;-60
2020/12/02 05:34:52;;;;;;;21.30;9.70;;;1.00;99.90;;;;;;5002203;28;20438;-62
2020/12/02 05:37:28;;;;;;;21.27;9.83;;;0.90;99.90;;;;;;5003417;28;20805;-58
2020/12/02 05:40:02;;;;;;;22.23;10.80;;;0.90;99.90;;;;;;5004996;28;20438;-61
2020/12/02 05:42:56;;;;;;;20.93;10.67;;;0.90;99.90;;;;;;5006562;28;20445;-59
2020/12/02 05:45:35;;;;;;;21.87;10.33;;;0.90;99.90;;;;;;5005654;28;20512;-65
2020/12/02 05:48:04;;;;;;;16.23;9.60;;;0.90;99.90;;;;;;5003266;28;20479;-60
2020/12/02 05:50:30;;;;;;;26.07;11.90;;;0.90;99.90;;;;;;5000489;28;20453;-58
2020/12/02 05:53:18;;;;;;;17.10;10.13;;;0.90;99.90;;;;;;5002604;28;20931;-63
2020/12/02 05:55:44;;;;;;;22.77;12.00;;;1.00;99.90;;;;;;5006351;28;20182;-59
2020/12/02 05:58:27;;;;;;;24.43;11.30;;;1.00;99.90;;;;;;5007818;28;20452;-59
2020/12/02 06:00:53;;;;;;;23.57;11.10;;;1.00;99.90;;;;;;5006395;28;20966;-59
2020/12/02 06:03:21;;;;;;;27.50;11.70;;;1.00;99.90;;;;;;5003926;28;20435;-60
2020/12/02 06:05:47;;;;;;;26.63;11.33;;;1.00;99.90;;;;;;5008368;28;20183;-59
2020/12/02 06:08:37;;;;;;;20.00;10.80;;;1.00;99.90;;;;;;5006966;28;20519;-59
2020/12/02 06:11:17;;;;;;;22.70;10.43;;;0.90;99.90;;;;;;5005013;28;20190;-60
2020/12/02 06:13:49;;;;;;;23.37;11.40;;;0.90;99.90;;;;;;5026386;28;20445;-59
2020/12/02 06:16:39;;;;;;;17.30;9.50;;;0.90;99.90;;;;;;5012194;28;20437;-59
2020/12/02 06:19:17;;;;;;;20.70;10.40;;;0.90;99.90;;;;;;5003662;28;20548;-59
2020/12/02 06:21:52;;;;;;;14.20;7.53;;;0.90;99.90;;;;;;5002629;28;20456;-58
2020/12/02 06:24:33;;;;;;;16.60;9.07;;;0.90;99.90;;;;;;5009835;28;20437;-59
2020/12/02 06:26:59;;;;;;;16.73;8.90;;;0.90;99.90;;;;;;5013595;28;20460;-60
2020/12/02 06:29:32;;;;;;;15.87;8.40;;;0.90;99.90;;;;;;5005793;28;20492;-59
2020/12/02 06:32:20;;;;;;;18.20;9.57;;;0.90;99.90;;;;;;5010114;28;20441;-60
2020/12/02 06:34:48;;;;;;;16.73;9.37;;;0.80;99.90;;;;;;5024321;28;20437;-60
2020/12/02 06:37:22;;;;;;;18.90;10.57;;;0.80;99.90;;;;;;5011275;28;20996;-58
2020/12/02 06:39:57;;;;;;;19.83;11.23;;;0.80;99.90;;;;;;5011669;28;20813;-58
2020/12/02 06:42:32;;;;;;;19.97;10.30;;;0.80;99.90;;;;;;5008132;28;20938;-59
2020/12/02 06:45:16;;;;;;;16.90;9.30;;;0.80;99.90;;;;;;5012354;28;20933;-60
2020/12/02 06:47:51;;;;;;;16.73;8.63;;;0.80;99.90;;;;;;5004363;28;20431;-58
2020/12/02 06:50:29;;;;;;;13.63;7.97;;;0.80;99.90;;;;;;5010804;28;20468;-59
2020/12/02 06:53:13;;;;;;;11.93;7.60;;;0.70;99.90;;;;;;5007336;28;20440;-59
2020/12/02 06:55:39;;;;;;;16.47;8.00;;;0.70;99.90;;;;;;5007331;28;20430;-59
2020/12/02 06:58:15;;;;;;;16.00;8.40;;;0.70;99.90;;;;;;5011567;28;20963;-59
2020/12/02 07:00:44;;;;;;;12.53;7.80;;;0.70;99.90;;;;;;5008949;28;20454;-59
2020/12/02 07:03:38;;;;;;;13.60;7.33;;;0.70;99.90;;;;;;5010582;28;20505;-59
2020/12/02 07:06:29;;;;;;;17.17;7.93;;;0.70;99.90;;;;;;5000655;28;20487;-61
2020/12/02 07:09:10;;;;;;;14.00;8.00;;;0.70;99.90;;;;;;5008963;28;20468;-59
2020/12/02 07:11:37;;;;;;;14.20;8.40;;;0.70;99.90;;;;;;5008851;28;20517;-60
2020/12/02 07:14:20;;;;;;;16.47;8.83;;;0.70;99.90;;;;;;5009870;28;20428;-61
2020/12/02 07:16:46;;;;;;;17.80;8.60;;;0.60;99.90;;;;;;5011356;28;20954;-59
2020/12/02 07:19:15;;;;;;;15.60;8.83;;;0.60;99.90;;;;;;5008269;28;20506;-60
2020/12/02 07:21:57;;;;;;;15.67;8.57;;;0.60;99.90;;;;;;5011529;28;20480;-59
2020/12/02 07:24:56;;;;;;;12.10;7.50;;;0.60;99.90;;;;;;5008701;28;21166;-59
2020/12/02 07:27:22;;;;;;;13.43;7.80;;;0.60;99.90;;;;;;5003162;28;20962;-59
2020/12/02 07:30:07;;;;;;;12.60;7.17;;;0.60;99.90;;;;;;5010985;28;20479;-59
2020/12/02 07:32:33;;;;;;;13.50;8.00;;;0.70;99.90;;;;;;5009665;28;20447;-60
2020/12/02 07:35:02;;;;;;;12.77;7.43;;;0.70;99.90;;;;;;5005729;28;20981;-59
2020/12/02 07:37:27;;;;;;;13.20;8.03;;;0.70;99.90;;;;;;5005184;28;20436;-59
2020/12/02 07:39:59;;;;;;;11.47;6.73;;;0.70;99.90;;;;;;5005646;28;20444;-58
2020/12/02 07:42:33;;;;;;;12.57;7.33;;;0.70;99.90;;;;;;5009145;28;20198;-63
2020/12/02 07:45:13;;;;;;;13.13;8.00;;;0.70;99.90;;;;;;5005026;28;20994;-59
2020/12/02 07:47:55;;;;;;;13.50;6.97;;;0.80;99.90;;;;;;5004931;28;20449;-58
2020/12/02 07:50:27;;;;;;;12.50;7.47;;;0.80;99.90;;;;;;5001389;28;20515;-59
2020/12/02 07:53:00;;;;;;;12.70;7.37;;;0.90;99.90;;;;;;4996882;28;20460;-63
2020/12/02 07:55:36;;;;;;;12.00;7.03;;;0.90;99.90;;;;;;5004192;28;20437;-63
2020/12/02 07:58:01;;;;;;;15.90;7.50;;;0.90;99.90;;;;;;5001901;28;20567;-61
2020/12/02 08:00:38;;;;;;;13.87;9.17;;;0.90;99.90;;;;;;5004664;28;20524;-59
2020/12/02 08:03:04;;;;;;;14.93;8.60;;;0.90;99.90;;;;;;5006118;28;20202;-59
2020/12/02 08:05:45;;;;;;;16.10;7.97;;;0.90;99.90;;;;;;5002977;28;20795;-60
2020/12/02 08:08:11;;;;;;;15.13;9.37;;;0.90;99.90;;;;;;5006589;28;20460;-59
2020/12/02 08:10:37;;;;;;;15.23;7.90;;;1.00;99.90;;;;;;5008993;28;20460;-61
2020/12/02 08:13:23;;;;;;;15.43;7.40;;;1.00;99.90;;;;;;5005071;28;20290;-62
2020/12/02 08:15:57;;;;;;;15.60;8.60;;;1.10;99.90;;;;;;5011652;28;20444;-57
2020/12/02 08:18:29;;;;;;;15.10;7.97;;;1.10;99.90;;;;;;5004623;28;20453;-55
2020/12/02 08:21:10;;;;;;;12.43;7.87;;;1.10;99.90;;;;;;5005467;28;20575;-56
2020/12/02 08:23:37;;;;;;;14.47;7.77;;;1.10;99.90;;;;;;5003476;28;20433;-61
2020/12/02 08:26:18;;;;;;;14.37;7.60;;;1.20;99.90;;;;;;5002672;28;20501;-59
2020/12/02 08:28:44;;;;;;;13.97;7.53;;;1.20;99.90;;;;;;5006260;28;20572;-58
2020/12/02 08:31:28;;;;;;;11.30;6.50;;;1.10;99.70;;;;;;5003482;28;20520;-60
2020/12/02 08:34:19;;;;;;;12.27;6.30;;;1.10;99.70;;;;;;5006130;28;20430;-60
2020/12/02 08:36:48;;;;;;;9.60;6.03;;;1.10;99.60;;;;;;5002806;28;20464;-59
2020/12/02 08:39:30;;;;;;;12.23;7.53;;;1.10;99.50;;;;;;5005590;28;20457;-58
2020/12/02 08:41:56;;;;;;;11.07;6.57;;;1.10;99.70;;;;;;5011551;28;20445;-59
2020/12/02 08:44:22;;;;;;;19.37;7.90;;;1.10;99.70;;;;;;5009169;28;20995;-62
2020/12/02 08:47:14;;;;;;;11.77;7.33;;;1.10;99.50;;;;;;5002449;28;20678;-60
2020/12/02 08:49:40;;;;;;;16.10;8.20;;;1.20;99.60;;;;;;5010729;28;20978;-59
2020/12/02 08:52:08;;;;;;;20.47;7.83;;;1.20;99.50;;;;;;5011704;28;20986;-60
2020/12/02 08:54:34;;;;;;;12.40;7.20;;;1.20;99.40;;;;;;5008988;28;20822;-59
2020/12/02 08:57:06;;;;;;;10.13;6.30;;;1.20;99.00;;;;;;5011332;28;20445;-59
2020/12/02 08:59:34;;;;;;;12.57;6.17;;;1.20;98.90;;;;;;5013272;28;20694;-61
2020/12/02 09:02:10;;;;;;;11.93;6.23;;;1.20;99.00;;;;;;5004413;28;20978;-59
2020/12/02 09:04:36;;;;;;;11.73;6.00;;;1.20;98.80;;;;;;5006929;28;20523;-60
2020/12/02 09:07:02;;;;;;;7.13;4.97;;;1.30;98.40;;;;;;5007849;28;20467;-59
2020/12/02 09:09:28;;;;;;;11.37;6.10;;;1.30;98.00;;;;;;5008218;28;20468;-59
2020/12/02 09:11:54;;;;;;;10.50;5.87;;;1.30;97.90;;;;;;5009753;28;20178;-58
2020/12/02 09:14:21;;;;;;;11.40;5.30;;;1.30;97.80;;;;;;5010522;28;20436;-60
2020/12/02 09:16:47;;;;;;;10.50;5.50;;;1.40;97.70;;;;;;5006988;28;20178;-61
2020/12/02 09:19:16;;;;;;;11.67;6.13;;;1.40;97.60;;;;;;5009420;28;20866;-63
2020/12/02 09:21:43;;;;;;;8.67;6.20;;;1.40;97.30;;;;;;5016909;28;20803;-61
2020/12/02 09:24:09;;;;;;;14.17;5.97;;;1.40;97.40;;;;;;5023200;28;20499;-62
2020/12/02 09:26:36;;;;;;;12.30;6.90;;;1.50;97.70;;;;;;5023370;28;20460;-61
2020/12/02 09:29:03;;;;;;;11.47;5.93;;;1.60;97.70;;;;;;5010670;28;20469;-63
2020/12/02 09:31:31;;;;;;;9.90;6.10;;;1.60;97.50;;;;;;5014765;28;20465;-60
2020/12/02 09:33:58;;;;;;;12.20;6.43;;;1.60;97.10;;;;;;5012466;28;20434;-61
2020/12/02 09:36:24;;;;;;;12.57;6.30;;;1.60;97.10;;;;;;5010227;28;20499;-61
2020/12/02 09:38:52;;;;;;;9.50;5.67;;;1.60;97.30;;;;;;5010983;28;20891;-60
2020/12/02 09:41:33;;;;;;;12.23;6.40;;;1.60;96.80;;;;;;5010712;28;20807;-61
2020/12/02 09:44:34;;;;;;;12.07;6.10;;;1.60;96.80;;;;;;5012709;28;20426;-60
2020/12/02 09:47:12;;;;;;;12.20;5.90;;;1.50;96.90;;;;;;5009624;28;21210;-60
2020/12/02 09:49:39;;;;;;;12.37;5.80;;;1.60;97.00;;;;;;5005831;28;20488;-60
2020/12/02 09:52:08;;;;;;;10.50;5.63;;;1.60;97.00;;;;;;5003912;28;20500;-60
2020/12/02 09:54:39;;;;;;;9.50;5.33;;;1.60;97.10;;;;;;5009465;28;20434;-56
2020/12/02 09:57:28;;;;;;;13.00;6.53;;;1.60;97.10;;;;;;5008959;28;20843;-56
2020/12/02 09:59:55;;;;;;;9.30;5.10;;;1.70;97.20;;;;;;5013214;28;20438;-60
2020/12/02 10:02:24;;;;;;;12.27;6.03;;;1.70;96.90;;;;;;5008835;28;20425;-60
2020/12/02 10:05:11;;;;;;;9.77;5.60;;;1.70;96.90;;;;;;5008249;28;20433;-61
2020/12/02 10:07:51;;;;;;;11.27;6.10;;;1.70;96.90;;;;;;5009967;28;20429;-61
2020/12/02 10:10:48;;;;;;;12.87;6.53;;;1.70;97.20;;;;;;5008780;28;20487;-60
2020/12/02 10:13:46;;;;;;;10.20;5.73;;;1.80;97.20;;;;;;5006622;28;20421;-61
2020/12/02 10:16:34;;;;;;;13.97;6.40;;;1.80;96.90;;;;;;5006115;28;20465;-60
2020/12/02 10:19:28;;;;;;;11.97;5.90;;;1.80;96.80;;;;;;5004412;28;20468;-60
2020/12/02 10:22:26;;;;;;;10.57;6.07;;;1.80;96.80;;;;;;5004792;28;20503;-61
2020/12/02 10:24:51;;;;;;;9.73;6.10;;;1.70;96.40;;;;;;5021056;28;20972;-61
2020/12/02 10:27:31;;;;;;;9.63;5.43;;;1.70;96.30;;;;;;5013169;28;20433;-60
2020/12/02 10:30:13;;;;;;;12.10;6.00;;;1.70;96.40;;;;;;5003693;28;20196;-60
2020/12/02 10:33:16;;;;;;;9.10;5.30;;;1.60;96.50;;;;;;5011242;28;20426;-62
2020/12/02 10:35:44;;;;;;;10.13;5.57;;;1.60;96.80;;;;;;4993703;28;20437;-60
2020/12/02 10:38:22;;;;;;;13.40;7.17;;;1.60;96.80;;;;;;5009377;28;20457;-61
2020/12/02 10:40:54;;;;;;;9.67;6.30;;;1.70;96.70;;;;;;5021842;28;20445;-61
2020/12/02 10:43:39;;;;;;;11.53;5.77;;;1.70;96.70;;;;;;5010809;28;20425;-61
2020/12/02 10:46:11;;;;;;;8.93;5.70;;;1.70;96.70;;;;;;5005151;28;20441;-62
2020/12/02 10:48:49;;;;;;;12.40;6.40;;;1.70;97.00;;;;;;5010094;28;21026;-61
2020/12/02 10:51:15;;;;;;;9.80;5.77;;;1.70;96.90;;;;;;4999945;28;20515;-62
2020/12/02 10:53:43;;;;;;;11.37;5.67;;;1.80;96.80;;;;;;5011749;28;20520;-61
2020/12/02 10:56:09;;;;;;;10.83;5.47;;;1.70;96.80;;;;;;5010554;28;20188;-61
2020/12/02 10:58:35;;;;;;;7.83;4.80;;;1.70;96.80;;;;;;5012501;28;20524;-62
2020/12/02 11:01:04;;;;;;;9.17;5.20;;;1.70;96.80;;;;;;5008842;28;20517;-61
2020/12/02 11:03:33;;;;;;;8.20;5.17;;;1.70;96.70;;;;;;5004141;28;20179;-61
2020/12/02 11:06:21;;;;;;;13.27;5.90;;;1.60;96.90;;;;;;5006642;28;20468;-61
2020/12/02 11:09:08;;;;;;;11.73;6.73;;;1.60;96.80;;;;;;5011606;28;20533;-64
2020/12/02 11:11:49;;;;;;;12.70;6.43;;;1.60;96.90;;;;;;5008660;28;20436;-60
2020/12/02 11:14:21;;;;;;;13.90;7.13;;;1.50;97.10;;;;;;5005365;28;20429;-60
2020/12/02 11:17:17;;;;;;;16.53;7.90;;;1.60;97.30;;;;;;5005465;28;20433;-59
2020/12/02 11:19:46;;;;;;;14.53;8.07;;;1.60;97.50;;;;;;5000065;28;20507;-62
2020/12/02 11:22:21;;;;;;;11.00;6.67;;;1.60;97.70;;;;;;5002858;28;20443;-60
2020/12/02 11:24:58;;;;;;;13.17;6.20;;;1.70;97.60;;;;;;5002066;28;20943;-61
2020/12/02 11:27:24;;;;;;;12.77;6.47;;;1.70;97.60;;;;;;5009384;28;20440;-61
2020/12/02 11:29:51;;;;;;;12.60;6.03;;;1.80;97.30;;;;;;5006746;28;20466;-62
2020/12/02 11:32:50;;;;;;;10.13;5.23;;;1.80;97.50;;;;;;5015612;28;20233;-61
2020/12/02 11:35:34;;;;;;;13.03;6.57;;;1.80;97.30;;;;;;5009742;28;20469;-61
2020/12/02 11:38:10;;;;;;;11.90;6.03;;;1.80;97.20;;;;;;5012644;28;20450;-61
2020/12/02 11:40:57;;;;;;;10.07;5.77;;;1.80;96.90;;;;;;5008741;28;21097;-61
2020/12/02 11:43:30;;;;;;;11.43;5.77;;;1.70;97.00;;;;;;4997157;28;20495;-61
2020/12/02 11:45:58;;;;;;;12.87;6.13;;;1.70;97.00;;;;;;5012480;28;20448;-62
2020/12/02 11:48:40;;;;;;;8.70;5.37;;;1.70;96.90;;;;;;5008823;28;20457;-61
2020/12/02 11:51:15;;;;;;;10.60;6.60;;;1.80;96.90;;;;;;5008279;28;20434;-62
2020/12/02 11:53:55;;;;;;;9.03;5.27;;;1.80;96.80;;;;;;5005468;28;20430;-61
2020/12/02 11:56:40;;;;;;;16.90;5.67;;;1.80;96.70;;;;;;4994234;28;20417;-63
2020/12/02 11:59:14;;;;;;;10.37;5.10;;;1.80;96.60;;;;;;5008882;28;20496;-62
2020/12/02 12:01:55;;;;;;;10.80;5.00;;;1.80;96.70;;;;;;5005827;28;20524;-61
2020/12/02 12:04:32;;;;;;;8.40;4.93;;;1.80;96.30;;;;;;5009926;28;20947;-62
2020/12/02 12:07:01;;;;;;;10.93;5.80;;;1.80;95.80;;;;;;5010462;28;20443;-60
2020/12/02 12:09:44;;;;;;;9.10;5.63;;;1.80;95.30;;;;;;5008753;28;20461;-60
2020/12/02 12:12:37;;;;;;;14.50;7.13;;;1.80;95.20;;;;;;5006288;28;20821;-60
2020/12/02 12:15:15;;;;;;;10.13;6.27;;;1.70;95.50;;;;;;5007057;28;20452;-61
2020/12/02 12:17:45;;;;;;;11.07;5.60;;;1.70;95.50;;;;;;5002759;28;20495;-60
2020/12/02 12:20:20;;;;;;;14.90;7.20;;;1.80;95.70;;;;;;5007135;28;20503;-61
2020/12/02 12:22:49;;;;;;;13.70;6.73;;;1.80;95.60;;;;;;5014525;28;20452;-61
2020/12/02 12:25:35;;;;;;;9.53;5.37;;;1.80;95.50;;;;;;5013923;28;20441;-61
2020/12/02 12:28:26;;;;;;;9.50;5.83;;;1.80;95.30;;;;;;5007858;28;20464;-63
2020/12/02 12:30:53;;;;;;;11.13;6.40;;;1.80;94.70;;;;;;5007958;28;20470;-61
2020/12/02 12:33:32;;;;;;;11.77;5.83;;;1.80;94.50;;;;;;5010191;28;20787;-61
2020/12/02 12:36:05;;;;;;;9.63;5.67;;;1.80;94.50;;;;;;5018028;28;20857;-61
2020/12/02 12:38:40;;;;;;;9.80;5.00;;;1.80;94.40;;;;;;5013399;28;20994;-61
2020/12/02 12:41:27;;;;;;;13.20;5.97;;;1.80;94.40;;;;;;5009380;28;20963;-62
2020/12/02 12:44:06;;;;;;;11.90;6.00;;;1.70;94.50;;;;;;5011470;28;20433;-63
2020/12/02 12:47:01;;;;;;;10.40;5.40;;;1.80;94.80;;;;;;5012018;28;20955;-63
2020/12/02 12:49:28;;;;;;;15.67;7.00;;;1.70;94.50;;;;;;5006808;28;20850;-62
2020/12/02 12:51:56;;;;;;;12.27;5.53;;;1.70;94.90;;;;;;5013686;28;20437;-62
2020/12/02 12:54:23;;;;;;;12.30;6.93;;;1.70;94.70;;;;;;4997781;28;20804;-62
2020/12/02 12:56:52;;;;;;;11.80;6.20;;;1.60;94.50;;;;;;5011823;28;20426;-62
2020/12/02 12:59:19;;;;;;;13.53;6.97;;;1.70;94.30;;;;;;5008989;28;20463;-61
2020/12/02 13:01:47;;;;;;;16.40;6.97;;;1.70;93.70;;;;;;5009574;28;20512;-61
2020/12/02 13:04:16;;;;;;;14.90;7.30;;;1.70;93.80;;;;;;5010656;28;20507;-63
2020/12/02 13:06:58;;;;;;;12.43;6.53;;;1.70;94.40;;;;;;5009655;28;20520;-63
2020/12/02 13:09:35;;;;;;;15.00;7.30;;;1.80;95.10;;;;;;5015076;28;20460;-63
2020/12/02 13:12:04;;;;;;;11.67;6.03;;;1.80;94.30;;;;;;5026609;28;20456;-64
2020/12/02 13:15:00;;;;;;;10.43;6.00;;;1.80;93.60;;;;;;5025704;28;20445;-61
2020/12/02 13:17:47;;;;;;;13.00;5.87;;;1.70;93.10;;;;;;4986214;28;20437;-61
2020/12/02 13:20:24;;;;;;;10.80;5.67;;;1.70;93.20;;;;;;5009999;28;20440;-61